Terminal Aerodrome Forecast
Issued by NWS

Home | Current Version | Previous Version | Text Only | Print | Product List | Glossary On
Versions: 1 2 3 4 5 6 7 8 9 10 11 12 13 14 15 16 17 18 19 20
000
FTUS44 KSJT 261200 AAA
TAFJCT
TAF AMD
KJCT 261224Z 2612/2712 VRB06KT P6SM BKN010
     FM261500 22010G16KT P6SM SCT030
     FM270000 19007KT P6SM VCSH SCT100=

USA.gov is the U.S. government's official web portal to all federal, state and local government web resources and services.